Time;durP1;ratioP1;P1;durP2;ratioP2;P2;SDS_P1;SDS_P2;PMS_P1;PMS_P2;Temp;Humidity;BMP_temperature;BMP_pressure;BME280_temperature;BME280_humidity;BME280_pressure;Samples;Min_cycle;Max_cycle;Signal;HPM_P1;HPM_P2
2021/07/29 00:00:38;;;;;;;2.35;0.80;;;23.30;70.30;;;;;;5014760;28;20030;-43
2021/07/29 00:03:05;;;;;;;1.02;0.80;;;23.30;70.20;;;;;;5014666;28;20025;-44
2021/07/29 00:05:32;;;;;;;2.00;0.90;;;23.40;69.60;;;;;;5014578;28;20065;-44
2021/07/29 00:07:58;;;;;;;3.72;1.02;;;;;;;;;;5014583;28;20030;-44
2021/07/29 00:10:25;;;;;;;1.83;0.88;;;23.30;67.60;;;;;;5014481;28;20033;-44
2021/07/29 00:12:51;;;;;;;1.08;0.70;;;;;;;;;;5014415;28;20542;-44
2021/07/29 00:15:17;;;;;;;3.63;1.35;;;23.30;68.90;;;;;;5014379;28;20073;-43
2021/07/29 00:20:23;;;;;;;4.05;1.30;;;23.50;95.60;;;;;;5014656;28;20103;-45
2021/07/29 00:22:53;;;;;;;2.40;0.70;;;23.20;70.60;;;;;;5014602;28;20043;-44
2021/07/29 00:25:20;;;;;;;4.10;1.10;;;23.20;67.90;;;;;;5014247;28;20029;-44
2021/07/29 00:27:46;;;;;;;2.03;1.00;;;23.30;95.60;;;;;;5014121;28;20032;-44
2021/07/29 00:30:14;;;;;;;1.92;0.80;;;23.50;95.70;;;;;;5014380;28;20373;-45
2021/07/29 00:32:40;;;;;;;2.17;1.10;;;23.40;95.60;;;;;;5014046;28;20057;-44
2021/07/29 00:35:08;;;;;;;3.08;1.17;;;23.30;95.50;;;;;;5014363;28;20389;-44
2021/07/29 00:37:34;;;;;;;2.60;1.10;;;23.40;95.60;;;;;;5014109;28;20065;-44
2021/07/29 00:40:01;;;;;;;5.32;1.02;;;;;;;;;;5013916;28;20042;-44
2021/07/29 00:42:27;;;;;;;3.10;1.00;;;;;;;;;;5013906;28;20034;-44
2021/07/29 00:44:53;;;;;;;2.42;0.90;;;23.40;90.90;;;;;;5013849;28;20034;-44
2021/07/29 00:47:19;;;;;;;2.20;1.23;;;23.20;70.60;;;;;;5013813;28;20022;-44
2021/07/29 00:49:46;;;;;;;3.85;1.50;;;23.20;70.90;;;;;;5013846;28;20030;-45
2021/07/29 00:52:18;;;;;;;3.40;1.45;;;23.20;70.80;;;;;;5014035;28;20101;-44
2021/07/29 00:54:44;;;;;;;2.20;0.90;;;;;;;;;;5013780;28;20032;-44
2021/07/29 00:57:10;;;;;;;3.47;1.20;;;23.10;95.60;;;;;;5012587;28;20037;-45
2021/07/29 00:59:36;;;;;;;2.58;0.80;;;23.30;95.60;;;;;;5013521;28;20040;-44
2021/07/29 01:02:03;;;;;;;2.35;0.88;;;23.40;95.80;;;;;;5013639;28;20025;-44
2021/07/29 01:04:29;;;;;;;2.97;1.00;;;;;;;;;;5013564;28;20029;-44
2021/07/29 01:06:55;;;;;;;0.93;0.80;;;;;;;;;;5013508;28;20076;-43
2021/07/29 01:09:21;;;;;;;2.65;0.88;;;;;;;;;;5013436;28;20044;-44
2021/07/29 01:11:47;;;;;;;3.38;1.00;;;23.20;95.70;;;;;;5013721;28;20022;-43
2021/07/29 01:14:14;;;;;;;3.97;1.35;;;23.20;95.70;;;;;;5013622;28;20030;-44
2021/07/29 01:16:40;;;;;;;2.83;1.15;;;;;;;;;;5013336;28;20033;-44
2021/07/29 01:19:07;;;;;;;2.95;1.27;;;23.20;71.00;;;;;;5013242;28;20045;-44
2021/07/29 01:21:33;;;;;;;2.90;1.00;;;;;;;;;;5013293;28;20097;-44
2021/07/29 01:23:59;;;;;;;4.38;0.90;;;23.30;95.80;;;;;;5013187;28;20037;-44
2021/07/29 01:26:27;;;;;;;2.50;1.33;;;23.30;95.80;;;;;;5013270;28;20080;-44
2021/07/29 01:28:53;;;;;;;2.92;1.02;;;;;;;;;;5013383;28;20425;-44
2021/07/29 01:31:19;;;;;;;2.95;1.00;;;;;;;;;;5013118;28;20022;-44
2021/07/29 01:33:45;;;;;;;3.47;1.17;;;;;;;;;;5013075;28;20026;-44
2021/07/29 01:36:12;;;;;;;2.53;0.93;;;;;;;;;;5012962;28;20034;-45
2021/07/29 01:38:38;;;;;;;2.55;1.00;;;;;;;;;;5012724;28;20033;-44
2021/07/29 01:41:04;;;;;;;5.80;1.45;;;;;;;;;;5013224;28;20375;-44
2021/07/29 01:43:30;;;;;;;2.72;1.30;;;23.00;67.50;;;;;;5012889;28;20033;-44
2021/07/29 01:45:57;;;;;;;4.70;1.45;;;;;;;;;;5012905;28;20029;-45
2021/07/29 01:48:23;;;;;;;2.55;0.90;;;;;;;;;;5012880;28;20037;-44
2021/07/29 01:50:49;;;;;;;2.65;1.08;;;;;;;;;;5012806;28;20410;-44
2021/07/29 01:53:15;;;;;;;5.65;1.13;;;;;;;;;;5012755;28;20073;-44
2021/07/29 01:55:42;;;;;;;1.98;1.00;;;23.00;69.90;;;;;;5012688;28;20030;-44
2021/07/29 01:58:08;;;;;;;3.95;1.27;;;;;;;;;;5012585;28;20089;-45
2021/07/29 02:00:34;;;;;;;3.63;1.00;;;;;;;;;;5012655;28;20097;-44
2021/07/29 02:03:04;;;;;;;7.90;1.55;;;;;;;;;;5012658;28;20413;-43
2021/07/29 02:05:30;;;;;;;2.88;0.90;;;;;;;;;;5012693;28;20017;-44
2021/07/29 02:07:57;;;;;;;3.28;1.50;;;23.00;69.40;;;;;;5012216;28;20085;-44
2021/07/29 02:10:23;;;;;;;4.00;1.80;;;;;;;;;;5012540;28;20025;-44
2021/07/29 02:12:49;;;;;;;4.22;1.40;;;;;;;;;;5012526;28;20037;-45
2021/07/29 02:15:15;;;;;;;3.30;1.25;;;;;;;;;;5012471;28;20022;-43
2021/07/29 02:17:41;;;;;;;2.78;1.23;;;;;;;;;;5012452;28;20108;-44
2021/07/29 02:20:08;;;;;;;7.20;1.77;;;23.10;71.60;;;;;;5012336;28;20064;-44
2021/07/29 02:22:34;;;;;;;2.38;0.93;;;;;;;;;;5012419;28;20014;-44
2021/07/29 02:25:00;;;;;;;5.03;1.55;;;;;;;;;;5012439;28;20474;-45
2021/07/29 02:27:26;;;;;;;4.45;1.42;;;;;;;;;;5012494;28;20084;-45
2021/07/29 02:29:53;;;;;;;3.67;1.27;;;23.00;71.60;;;;;;5012416;28;20022;-46
2021/07/29 02:32:19;;;;;;;4.80;1.52;;;;;;;;;;5012404;28;20023;-46
2021/07/29 02:34:45;;;;;;;4.03;1.35;;;;;;;;;;5012646;28;20096;-44
2021/07/29 02:37:11;;;;;;;2.65;1.00;;;;;;;;;;5012255;28;20498;-45
2021/07/29 02:39:40;;;;;;;3.80;1.30;;;;;;;;;;5012127;28;20120;-45
2021/07/29 02:42:06;;;;;;;3.60;1.15;;;;;;;;;;5012294;28;20052;-45
2021/07/29 02:44:32;;;;;;;4.22;1.25;;;;;;;;;;5012282;28;20102;-45
2021/07/29 02:46:58;;;;;;;3.78;1.35;;;;;;;;;;5012238;28;20445;-43
2021/07/29 02:49:24;;;;;;;6.18;1.73;;;;;;;;;;5012489;28;20026;-43
2021/07/29 02:51:50;;;;;;;5.28;1.73;;;;;;;;;;5012204;28;20029;-44
2021/07/29 02:54:16;;;;;;;3.15;1.35;;;;;;;;;;5012144;28;20029;-44
2021/07/29 02:56:42;;;;;;;4.70;1.73;;;;;;;;;;5012172;28;20101;-44
2021/07/29 02:59:08;;;;;;;3.33;1.10;;;;;;;;;;5011990;28;20038;-44
2021/07/29 03:01:34;;;;;;;3.97;1.35;;;;;;;;;;5012107;28;20037;-43
2021/07/29 03:04:00;;;;;;;6.00;1.40;;;;;;;;;;5012399;28;20032;-44
2021/07/29 03:06:26;;;;;;;2.75;1.13;;;;;;;;;;5012021;28;20493;-44
2021/07/29 03:08:52;;;;;;;4.50;1.50;;;;;;;;;;5012058;28;20025;-43
2021/07/29 03:11:18;;;;;;;3.30;1.38;;;;;;;;;;4994324;28;20585;-46
2021/07/29 03:13:44;;;;;;;4.38;1.45;;;;;;;;;;5012016;28;20474;-44
2021/07/29 03:16:10;;;;;;;2.25;1.13;;;;;;;;;;5011906;28;20060;-44
2021/07/29 03:18:36;;;;;;;4.03;1.13;;;;;;;;;;5011859;28;20527;-43
2021/07/29 03:21:02;;;;;;;3.58;1.45;;;;;;;;;;5013552;28;20030;-44
2021/07/29 03:23:28;;;;;;;3.35;1.15;;;;;;;;;;5015448;28;20026;-44
2021/07/29 03:25:54;;;;;;;6.05;1.60;;;;;;;;;;5015413;28;20030;-44
2021/07/29 03:28:21;;;;;;;4.22;1.27;;;;;;;;;;5015295;28;20036;-44
2021/07/29 03:30:47;;;;;;;6.05;1.33;;;22.90;71.30;;;;;;5015351;28;20026;-44
2021/07/29 03:33:13;;;;;;;3.70;1.10;;;;;;;;;;5015523;28;20539;-43
2021/07/29 03:35:40;;;;;;;4.43;1.30;;;22.80;70.70;;;;;;5015221;28;20160;-44
2021/07/29 03:38:09;;;;;;;3.42;1.15;;;22.90;67.20;;;;;;5014990;28;20109;-44
2021/07/29 03:40:36;;;;;;;3.15;1.02;;;22.80;72.10;;;;;;5015169;28;20053;-44
2021/07/29 03:43:02;;;;;;;4.22;1.30;;;;;;;;;;5015001;28;20105;-44
2021/07/29 03:45:29;;;;;;;3.67;1.30;;;22.80;69.60;;;;;;5015015;28;20139;-44
2021/07/29 03:47:55;;;;;;;4.53;1.58;;;;;;;;;;5015010;28;20014;-44
2021/07/29 03:50:21;;;;;;;5.53;1.55;;;;;;;;;;5014871;28;20116;-43
2021/07/29 03:52:47;;;;;;;4.47;1.27;;;;;;;;;;5014918;28;20056;-44
2021/07/29 03:55:13;;;;;;;3.85;1.40;;;;;;;;;;5014890;28;20022;-43
2021/07/29 03:57:39;;;;;;;3.97;1.25;;;;;;;;;;4997411;28;20573;-44
2021/07/29 04:00:05;;;;;;;4.50;1.38;;;;;;;;;;5014714;28;20069;-44
2021/07/29 04:02:32;;;;;;;4.95;1.42;;;;;;;;;;5014915;28;20109;-44
2021/07/29 04:04:58;;;;;;;7.32;1.40;;;;;;;;;;5014717;28;20521;-43
2021/07/29 04:07:24;;;;;;;4.70;1.30;;;;;;;;;;5014647;28;20471;-44
2021/07/29 04:09:50;;;;;;;4.90;2.08;;;;;;;;;;5014906;28;20104;-44
2021/07/29 04:12:16;;;;;;;5.18;1.80;;;;;;;;;;5014540;28;20030;-43
2021/07/29 04:14:42;;;;;;;4.22;1.20;;;;;;;;;;5014544;28;20284;-44
2021/07/29 04:17:09;;;;;;;4.35;1.30;;;;;;;;;;5014768;28;20033;-44
2021/07/29 04:19:35;;;;;;;3.25;1.45;;;;;;;;;;5014359;28;20044;-44
2021/07/29 04:22:01;;;;;;;6.30;1.42;;;;;;;;;;5014590;28;20033;-44
2021/07/29 04:24:29;;;;;;;3.20;1.05;;;;;;;;;;5014244;28;20129;-43
2021/07/29 04:26:55;;;;;;;4.13;1.48;;;22.80;72.40;;;;;;5014258;28;20025;-44
2021/07/29 04:29:21;;;;;;;5.78;1.58;;;;;;;;;;5014462;28;20033;-44
2021/07/29 04:31:47;;;;;;;4.03;1.70;;;;;;;;;;5013912;28;20092;-44
2021/07/29 04:34:13;;;;;;;5.57;1.30;;;;;;;;;;5014183;28;20445;-44
2021/07/29 04:36:40;;;;;;;6.75;1.70;;;22.80;96.30;;;;;;5014091;28;20056;-44
2021/07/29 04:39:07;;;;;;;3.88;1.15;;;22.80;72.50;;;;;;5013801;28;20034;-44
2021/07/29 04:41:37;;;;;;;4.63;1.35;;;22.70;72.20;;;;;;5014265;28;20381;-44
2021/07/29 04:44:03;;;;;;;2.38;1.02;;;23.00;96.20;;;;;;5014253;28;20030;-44
2021/07/29 04:46:29;;;;;;;3.47;1.30;;;;;;;;;;5014122;28;20076;-43
2021/07/29 04:48:55;;;;;;;3.72;1.38;;;;;;;;;;5013867;28;20105;-43
2021/07/29 04:51:21;;;;;;;3.50;1.20;;;;;;;;;;5014120;28;20026;-44
2021/07/29 04:53:47;;;;;;;4.07;1.33;;;;;;;;;;5013787;28;20030;-44
2021/07/29 04:56:13;;;;;;;4.68;1.45;;;;;;;;;;5013746;28;20026;-44
2021/07/29 04:58:39;;;;;;;6.00;1.75;;;;;;;;;;5013588;28;20386;-44
2021/07/29 05:01:05;;;;;;;3.15;1.30;;;;;;;;;;5013671;28;20508;-45
2021/07/29 05:03:31;;;;;;;4.35;1.30;;;;;;;;;;5013797;28;20422;-45
2021/07/29 05:05:57;;;;;;;3.53;1.05;;;;;;;;;;5013557;28;20029;-44
2021/07/29 05:08:23;;;;;;;5.80;1.88;;;;;;;;;;5013473;28;20037;-46
2021/07/29 05:10:49;;;;;;;3.85;1.27;;;;;;;;;;5013448;28;20028;-44
2021/07/29 05:13:15;;;;;;;2.80;1.10;;;;;;;;;;5013408;28;20418;-43
2021/07/29 05:15:41;;;;;;;5.55;1.35;;;;;;;;;;5013309;28;20092;-44
2021/07/29 05:18:07;;;;;;;3.10;1.00;;;;;;;;;;5013271;28;20022;-45
2021/07/29 05:20:33;;;;;;;4.03;1.30;;;;;;;;;;5013301;28;20034;-43
2021/07/29 05:22:59;;;;;;;4.63;1.27;;;;;;;;;;5013450;28;20425;-45
2021/07/29 05:25:25;;;;;;;5.88;1.13;;;;;;;;;;5013214;28;20030;-45
2021/07/29 05:27:51;;;;;;;4.70;1.55;;;;;;;;;;4995479;28;20497;-44
2021/07/29 05:30:18;;;;;;;3.05;1.10;;;22.70;72.70;;;;;;5013169;28;20030;-43
2021/07/29 05:32:45;;;;;;;5.07;1.77;;;;;;;;;;5013362;28;20485;-53
2021/07/29 05:35:11;;;;;;;5.28;1.45;;;22.70;70.60;;;;;;5013061;28;20025;-49
2021/07/29 05:37:37;;;;;;;6.82;1.70;;;;;;;;;;5013070;28;20025;-56
2021/07/29 05:40:06;;;;;;;3.13;1.05;;;22.60;74.40;;;;;;5012675;28;20053;-54
2021/07/29 05:42:32;;;;;;;7.30;1.65;;;22.70;72.50;;;;;;5012620;28;20025;-52
2021/07/29 05:44:58;;;;;;;3.83;1.40;;;22.80;96.60;;;;;;4994947;28;20025;-53
2021/07/29 05:47:24;;;;;;;6.15;1.48;;;;;;;;;;5012792;28;20470;-56
2021/07/29 05:49:50;;;;;;;6.15;1.73;;;;;;;;;;5012862;28;20548;-54
2021/07/29 05:52:16;;;;;;;5.82;1.65;;;;;;;;;;5012722;28;20033;-53
2021/07/29 05:54:42;;;;;;;9.35;1.85;;;22.80;96.30;;;;;;5012989;28;20034;-56
2021/07/29 05:57:08;;;;;;;8.75;2.00;;;;;;;;;;5012785;28;20578;-56
2021/07/29 05:59:34;;;;;;;5.72;1.85;;;;;;;;;;5012620;28;20042;-53
2021/07/29 06:02:00;;;;;;;2.60;1.15;;;;;;;;;;5012618;28;20034;-55
2021/07/29 06:04:26;;;;;;;5.65;1.65;;;;;;;;;;5012852;28;20026;-54
2021/07/29 06:06:52;;;;;;;5.78;1.63;;;;;;;;;;5012553;28;20022;-55
2021/07/29 06:09:18;;;;;;;3.20;1.25;;;;;;;;;;5012600;28;20030;-55
2021/07/29 06:11:44;;;;;;;5.60;1.45;;;;;;;;;;5012577;28;20065;-55
2021/07/29 06:14:10;;;;;;;6.32;1.67;;;;;;;;;;5012948;28;20030;-56
2021/07/29 06:16:36;;;;;;;9.18;1.30;;;23.10;96.60;;;;;;5012608;28;20025;-56
2021/07/29 06:19:08;;;;;;;7.10;1.80;;;;;;;;;;5012792;28;20029;-55
2021/07/29 06:21:35;;;;;;;7.15;1.52;;;22.80;96.40;;;;;;5012978;28;20100;-54
2021/07/29 06:24:01;;;;;;;7.35;1.35;;;;;;;;;;5012940;28;20033;-54
2021/07/29 06:26:28;;;;;;;13.63;1.75;;;;;;;;;;5012890;28;20041;-56
2021/07/29 06:28:54;;;;;;;9.45;2.25;;;;;;;;;;5012823;28;20029;-55
2021/07/29 06:31:20;;;;;;;6.50;1.63;;;;;;;;;;5012547;28;20032;-55
2021/07/29 06:33:46;;;;;;;6.22;2.10;;;;;;;;;;5012780;28;20429;-55
2021/07/29 06:36:11;;;;;;;4.20;1.85;;;23.00;96.30;;;;;;5012430;28;20026;-56
2021/07/29 06:38:38;;;;;;;4.20;1.70;;;;;;;;;;5012203;28;20486;-56
2021/07/29 06:41:05;;;;;;;3.58;1.38;;;22.80;71.90;;;;;;5012458;28;20497;-55
2021/07/29 06:43:31;;;;;;;9.80;1.42;;;;;;;;;;5012466;28;20068;-55
2021/07/29 06:46:02;;;;;;;5.43;1.63;;;23.10;72.60;;;;;;5012411;28;20450;-54
2021/07/29 06:48:28;;;;;;;8.05;1.83;;;;;;;;;;5012668;28;20101;-53
2021/07/29 06:50:54;;;;;;;10.23;2.17;;;;;;;;;;5012355;28;20057;-54
2021/07/29 06:53:20;;;;;;;6.40;1.73;;;;;;;;;;5011635;28;20026;-53
2021/07/29 06:55:46;;;;;;;6.85;2.08;;;;;;;;;;5013290;28;20057;-55
2021/07/29 06:58:12;;;;;;;5.95;1.92;;;;;;;;;;5014239;28;20033;-55
2021/07/29 07:00:38;;;;;;;3.90;1.30;;;;;;;;;;5014004;28;20030;-55
2021/07/29 07:03:04;;;;;;;5.97;1.52;;;;;;;;;;5014049;28;20025;-44
2021/07/29 07:05:30;;;;;;;6.63;1.70;;;;;;;;;;5014099;28;20026;-45
2021/07/29 07:07:56;;;;;;;7.10;1.70;;;;;;;;;;5014018;28;20077;-45
2021/07/29 07:10:22;;;;;;;4.90;1.42;;;;;;;;;;5013960;28;20037;-45
2021/07/29 07:12:50;;;;;;;3.10;1.38;;;;;;;;;;5016167;28;20132;-44
2021/07/29 07:15:16;;;;;;;6.22;1.60;;;;;;;;;;5015990;28;20026;-46
2021/07/29 07:17:42;;;;;;;8.88;1.42;;;;;;;;;;5015747;28;20068;-44
2021/07/29 07:20:08;;;;;;;4.00;1.52;;;;;;;;;;5015633;28;20066;-46
2021/07/29 07:22:36;;;;;;;7.18;1.63;;;22.80;72.00;;;;;;5015690;28;20450;-46
2021/07/29 07:25:02;;;;;;;4.00;1.48;;;;;;;;;;5015597;28;20022;-45
2021/07/29 07:27:28;;;;;;;5.65;1.92;;;;;;;;;;5015548;28;20025;-45
2021/07/29 07:29:54;;;;;;;4.15;1.42;;;;;;;;;;5015528;28;20029;-44
2021/07/29 07:32:20;;;;;;;4.75;1.63;;;;;;;;;;5015419;28;20033;-44
2021/07/29 07:34:45;;;;;;;6.10;1.90;;;;;;;;;;4997873;28;20470;-45
2021/07/29 07:37:12;;;;;;;7.75;1.98;;;;;;;;;;5015303;28;20394;-45
2021/07/29 07:39:37;;;;;;;7.40;1.90;;;;;;;;;;5015109;28;20133;-46
2021/07/29 07:42:04;;;;;;;4.47;1.27;;;22.80;69.90;;;;;;5015284;28;20106;-44
2021/07/29 07:44:30;;;;;;;7.20;1.60;;;;;;;;;;5015225;28;20441;-44
2021/07/29 07:46:56;;;;;;;4.47;1.40;;;;;;;;;;5015182;28;20058;-46
2021/07/29 07:49:22;;;;;;;5.47;1.90;;;;;;;;;;5015132;28;20033;-44
2021/07/29 07:51:48;;;;;;;5.22;1.80;;;;;;;;;;5015104;28;20535;-45
2021/07/29 07:54:14;;;;;;;7.20;1.70;;;;;;;;;;5015016;28;20029;-45
2021/07/29 07:56:43;;;;;;;4.78;1.80;;;22.90;66.10;;;;;;5015036;28;20033;-45
2021/07/29 07:59:09;;;;;;;3.83;1.13;;;;;;;;;;5014909;28;20038;-43
2021/07/29 08:01:38;;;;;;;7.20;1.90;;;22.80;71.50;;;;;;5014947;28;20029;-45
2021/07/29 08:04:04;;;;;;;3.45;1.50;;;23.00;72.00;;;;;;5014844;28;20022;-45
2021/07/29 08:06:30;;;;;;;3.95;1.20;;;;;;;;;;5014229;28;20033;-45
2021/07/29 08:08:56;;;;;;;4.95;1.58;;;;;;;;;;5014838;28;20037;-44
2021/07/29 08:11:22;;;;;;;7.32;1.65;;;;;;;;;;5014566;28;20021;-44
2021/07/29 08:13:48;;;;;;;5.32;1.73;;;;;;;;;;5014697;28;20482;-44
2021/07/29 08:16:14;;;;;;;4.88;1.58;;;;;;;;;;5014635;28;20490;-44
2021/07/29 08:18:40;;;;;;;4.38;1.60;;;;;;;;;;5014474;28;20042;-44
2021/07/29 08:21:12;;;;;;;4.47;1.40;;;22.90;66.50;;;;;;5014167;28;20018;-44
2021/07/29 08:23:39;;;;;;;4.07;1.60;;;22.90;70.30;;;;;;5014762;28;20049;-44
2021/07/29 08:26:07;;;;;;;4.38;1.40;;;;;;;;;;5014497;28;20076;-43
2021/07/29 08:28:33;;;;;;;5.80;1.80;;;;;;;;;;5014531;28;20045;-43
2021/07/29 08:30:59;;;;;;;4.28;1.27;;;;;;;;;;5014306;28;20033;-44
2021/07/29 08:33:25;;;;;;;4.15;1.80;;;;;;;;;;5014566;28;20022;-43
2021/07/29 08:35:51;;;;;;;7.97;1.40;;;;;;;;;;5014251;28;20496;-43
2021/07/29 08:38:17;;;;;;;2.88;1.20;;;;;;;;;;5013951;28;20040;-43
2021/07/29 08:40:43;;;;;;;5.00;1.70;;;;;;;;;;5014189;28;20112;-44
2021/07/29 08:43:10;;;;;;;5.63;1.75;;;22.90;69.40;;;;;;5014215;28;20109;-43
2021/07/29 08:45:44;;;;;;;4.15;1.50;;;23.00;66.40;;;;;;4996530;28;20037;-44
2021/07/29 08:48:10;;;;;;;4.88;1.60;;;23.00;69.20;;;;;;5014333;28;20057;-44
2021/07/29 08:50:36;;;;;;;6.53;1.52;;;;;;;;;;5014013;28;20029;-43
2021/07/29 08:53:02;;;;;;;5.22;1.60;;;;;;;;;;5014217;28;20026;-43
2021/07/29 08:55:28;;;;;;;6.93;1.58;;;;;;;;;;5014027;28;20498;-43
2021/07/29 08:57:54;;;;;;;5.47;1.30;;;;;;;;;;5014057;28;20026;-44
2021/07/29 09:00:21;;;;;;;5.35;1.58;;;;;;;;;;5013684;28;20091;-44
2021/07/29 09:02:47;;;;;;;5.82;1.40;;;;;;;;;;5013988;28;20041;-45
2021/07/29 09:05:15;;;;;;;5.18;2.03;;;23.00;71.60;;;;;;5013728;28;20714;-44
2021/07/29 09:07:42;;;;;;;4.30;1.25;;;23.00;71.00;;;;;;5013904;28;20106;-45
2021/07/29 09:10:19;;;;;;;5.65;1.52;;;23.10;69.20;;;;;;5012851;28;20022;-45
2021/07/29 09:12:45;;;;;;;5.13;1.65;;;;;;;;;;5011718;28;20133;-44
2021/07/29 09:15:20;;;;;;;5.28;1.20;;;23.10;65.60;;;;;;5011557;28;20529;-45
2021/07/29 09:17:47;;;;;;;5.18;1.40;;;;;;;;;;5010826;28;20278;-47
2021/07/29 09:20:19;;;;;;;7.13;1.83;;;23.00;65.50;;;;;;5011232;28;20069;-47
2021/07/29 09:22:51;;;;;;;4.40;1.52;;;23.00;68.80;;;;;;5011409;28;20021;-45
2021/07/29 09:25:19;;;;;;;3.58;1.50;;;;;;;;;;5011901;28;20026;-45
2021/07/29 09:27:49;;;;;;;6.05;1.88;;;23.00;71.10;;;;;;4995732;28;20482;-45
2021/07/29 09:30:21;;;;;;;6.85;1.80;;;23.00;71.10;;;;;;4995972;28;20030;-45
2021/07/29 09:32:59;;;;;;;6.82;1.50;;;23.00;65.90;;;;;;5013288;28;20026;-46
2021/07/29 09:35:40;;;;;;;6.43;1.88;;;23.00;65.90;;;;;;5013188;28;20029;-44
2021/07/29 09:38:09;;;;;;;6.38;2.00;;;23.00;70.90;;;;;;5013153;28;20037;-46
2021/07/29 09:40:43;;;;;;;16.20;1.98;;;23.40;65.80;;;;;;5013178;28;20037;-44
2021/07/29 09:43:15;;;;;;;3.83;1.77;;;23.00;71.10;;;;;;5013145;28;20042;-45
2021/07/29 09:45:44;;;;;;;3.58;1.20;;;23.00;71.20;;;;;;5012944;28;20377;-45
2021/07/29 09:48:10;;;;;;;7.35;1.73;;;23.00;68.90;;;;;;5012826;28;20029;-45
2021/07/29 09:50:37;;;;;;;4.72;1.58;;;23.00;70.60;;;;;;5012856;28;20474;-46
2021/07/29 09:53:04;;;;;;;5.13;1.45;;;;;;;;;;5012783;28;20032;-45
2021/07/29 09:55:30;;;;;;;7.80;1.73;;;;;;;;;;5013042;28;20060;-45
2021/07/29 09:57:56;;;;;;;3.60;1.40;;;;;;;;;;5012642;28;20040;-44
2021/07/29 10:00:22;;;;;;;6.50;1.90;;;;;;;;;;5012373;28;20038;-48
2021/07/29 10:02:49;;;;;;;5.20;1.23;;;;;;;;;;5012623;28;20072;-46
2021/07/29 10:05:16;;;;;;;6.22;1.88;;;23.30;70.40;;;;;;5012949;28;20379;-45
2021/07/29 10:07:45;;;;;;;4.13;1.45;;;23.20;70.10;;;;;;5012773;28;20025;-46
2021/07/29 10:10:11;;;;;;;3.63;1.30;;;;;;;;;;5012807;28;20026;-45
2021/07/29 10:12:38;;;;;;;3.80;1.65;;;23.30;69.90;;;;;;5013019;28;20026;-45
2021/07/29 10:15:05;;;;;;;4.10;1.15;;;;;;;;;;5012671;28;20423;-44
2021/07/29 10:17:36;;;;;;;6.05;1.67;;;23.30;64.60;;;;;;5012656;28;20022;-47
2021/07/29 10:20:19;;;;;;;5.82;1.75;;;23.30;64.80;;;;;;5012537;28;20516;-45
2021/07/29 10:22:47;;;;;;;3.83;1.52;;;23.30;69.60;;;;;;5012950;28;20475;-45
2021/07/29 10:25:13;;;;;;;4.10;1.30;;;;;;;;;;5012612;28;20378;-45
2021/07/29 10:27:39;;;;;;;4.53;1.27;;;;;;;;;;5012891;28;20440;-45
2021/07/29 10:30:19;;;;;;;6.55;1.70;;;23.40;64.60;;;;;;5014715;28;20036;-45
2021/07/29 10:32:47;;;;;;;5.05;1.45;;;23.30;69.70;;;;;;5016606;28;20057;-46
2021/07/29 10:35:36;;;;;;;6.82;1.42;;;23.40;64.50;;;;;;5016809;28;20026;-45
2021/07/29 10:38:02;;;;;;;6.65;1.77;;;;;;;;;;5005922;28;20511;-45
2021/07/29 10:40:45;;;;;;;3.42;1.15;;;23.50;64.20;;;;;;5016242;28;20418;-46
2021/07/29 10:43:20;;;;;;;4.25;1.45;;;23.50;64.10;;;;;;5016501;28;20411;-45
2021/07/29 10:45:53;;;;;;;6.13;1.40;;;23.70;94.80;;;;;;5016237;28;20022;-45
2021/07/29 10:48:45;;;;;;;3.65;1.20;;;23.50;64.10;;;;;;5016181;28;20037;-46
2021/07/29 10:51:12;;;;;;;4.10;1.55;;;23.50;69.40;;;;;;5016358;28;20037;-45
2021/07/29 10:53:46;;;;;;;4.70;1.50;;;23.50;64.20;;;;;;5016114;28;20044;-46
2021/07/29 10:56:13;;;;;;;3.35;1.40;;;23.40;69.40;;;;;;5016345;28;20065;-45
2021/07/29 10:58:40;;;;;;;2.50;1.23;;;23.50;69.50;;;;;;5015916;28;20022;-45
2021/07/29 11:01:06;;;;;;;5.53;1.50;;;;;;;;;;5016026;28;20422;-45
2021/07/29 11:03:33;;;;;;;4.82;1.77;;;;;;;;;;5015915;28;20018;-45
2021/07/29 11:06:09;;;;;;;5.00;1.77;;;;;;;;;;5015857;28;20747;-45
2021/07/29 11:08:36;;;;;;;6.40;1.45;;;;;;;;;;5016240;28;20037;-46
2021/07/29 11:11:02;;;;;;;4.05;1.33;;;23.60;68.80;;;;;;5015894;28;20115;-46
2021/07/29 11:13:29;;;;;;;4.13;1.70;;;;;;;;;;5015897;28;20032;-47
2021/07/29 11:16:00;;;;;;;3.40;1.38;;;23.60;69.10;;;;;;5015844;28;20517;-45
2021/07/29 11:18:26;;;;;;;7.00;1.65;;;;;;;;;;5015384;28;20029;-45
2021/07/29 11:20:52;;;;;;;6.80;1.77;;;;;;;;;;5014283;28;20026;-46
2021/07/29 11:23:37;;;;;;;3.88;1.42;;;23.70;63.70;;;;;;4996072;28;20117;-45
2021/07/29 11:26:04;;;;;;;3.10;1.48;;;23.70;68.90;;;;;;4996016;28;20104;-45
2021/07/29 11:28:34;;;;;;;4.22;1.42;;;23.80;68.60;;;;;;5013833;28;20029;-45
2021/07/29 11:31:00;;;;;;;2.65;1.20;;;;;;;;;;5015727;28;20033;-46
2021/07/29 11:33:27;;;;;;;7.10;1.90;;;24.00;94.80;;;;;;5015403;28;20030;-45
2021/07/29 11:35:54;;;;;;;3.97;1.10;;;23.70;68.50;;;;;;5015772;28;20014;-47
2021/07/29 11:38:22;;;;;;;5.50;2.00;;;24.20;94.70;;;;;;5015030;28;20084;-46
2021/07/29 11:40:48;;;;;;;4.15;1.42;;;;;;;;;;5014581;28;20030;-44
2021/07/29 11:43:27;;;;;;;3.72;1.60;;;23.80;62.70;;;;;;5015038;28;20017;-44
2021/07/29 11:46:04;;;;;;;5.05;1.88;;;23.50;67.30;;;;;;5015207;28;20033;-44
2021/07/29 11:48:30;;;;;;;4.78;1.85;;;;;;;;;;5015272;28;20025;-45
2021/07/29 11:50:57;;;;;;;3.97;1.42;;;;;;;;;;5015145;28;20363;-43
2021/07/29 11:53:38;;;;;;;4.53;1.50;;;23.90;68.10;;;;;;5015066;28;20018;-44
2021/07/29 11:56:05;;;;;;;6.53;1.95;;;24.00;71.70;;;;;;5015388;28;20088;-55
2021/07/29 11:58:31;;;;;;;4.53;1.30;;;24.30;69.50;;;;;;5014988;28;20029;-55
2021/07/29 12:00:57;;;;;;;5.43;1.55;;;;;;;;;;5014928;28;20038;-56
2021/07/29 12:03:35;;;;;;;2.90;1.20;;;24.00;67.90;;;;;;5014725;28;20057;-55
2021/07/29 12:06:02;;;;;;;10.02;1.83;;;24.00;66.40;;;;;;5014814;28;20026;-56
2021/07/29 12:08:29;;;;;;;6.18;1.80;;;23.90;67.60;;;;;;5014697;28;20121;-55
2021/07/29 12:10:56;;;;;;;4.32;1.60;;;24.00;67.40;;;;;;5014985;28;20092;-56
2021/07/29 12:13:23;;;;;;;8.35;1.52;;;24.10;94.00;;;;;;5014731;28;20026;-54
2021/07/29 12:15:53;;;;;;;5.53;1.42;;;23.90;67.10;;;;;;5014645;28;20026;-54
2021/07/29 12:18:22;;;;;;;3.65;1.50;;;24.00;61.50;;;;;;5014356;28;20022;-56
2021/07/29 12:20:50;;;;;;;6.28;1.52;;;24.00;67.10;;;;;;5014336;28;20021;-56
2021/07/29 12:23:17;;;;;;;4.78;2.22;;;24.10;94.10;;;;;;5014671;28;20101;-54
2021/07/29 12:25:43;;;;;;;6.25;1.88;;;24.20;94.20;;;;;;5014462;28;20026;-55
2021/07/29 12:28:10;;;;;;;4.05;1.60;;;;;;;;;;5014455;28;20088;-56
2021/07/29 12:30:42;;;;;;;5.85;2.03;;;24.10;92.50;;;;;;5014208;28;20038;-54
2021/07/29 12:33:22;;;;;;;6.10;1.90;;;24.00;61.70;;;;;;5014491;28;20095;-57
2021/07/29 12:36:02;;;;;;;1.85;1.20;;;23.50;61.50;;;;;;5014552;28;20034;-55
2021/07/29 12:38:38;;;;;;;6.70;2.15;;;24.30;94.10;;;;;;5013838;28;20029;-57
2021/07/29 12:41:05;;;;;;;4.03;1.60;;;24.00;67.10;;;;;;5014290;28;20026;-57
2021/07/29 12:43:32;;;;;;;6.25;1.95;;;;;;;;;;5014213;28;20438;-55
2021/07/29 12:46:04;;;;;;;6.68;1.45;;;24.30;94.10;;;;;;5013943;28;20065;-56
2021/07/29 12:48:30;;;;;;;7.57;1.98;;;;;;;;;;5014054;28;20018;-55
2021/07/29 12:50:57;;;;;;;7.05;1.98;;;;;;;;;;5013957;28;20072;-56
2021/07/29 12:53:23;;;;;;;7.63;1.70;;;;;;;;;;5013542;28;20505;-54
2021/07/29 12:55:50;;;;;;;4.75;1.70;;;23.90;65.80;;;;;;5013554;28;20489;-56
2021/07/29 12:58:17;;;;;;;8.75;2.17;;;24.20;93.50;;;;;;5013802;28;20018;-56
2021/07/29 13:00:45;;;;;;;4.18;1.85;;;24.10;65.60;;;;;;5013715;28;20038;-57
2021/07/29 13:03:29;;;;;;;9.35;2.17;;;24.10;60.10;;;;;;5013799;28;20096;-55
2021/07/29 13:05:56;;;;;;;7.47;1.83;;;24.00;65.30;;;;;;5013892;28;20033;-54
2021/07/29 13:08:22;;;;;;;6.50;1.60;;;;;;;;;;5013695;28;20045;-55
2021/07/29 13:10:48;;;;;;;9.05;2.17;;;;;;;;;;5013967;28;20065;-56
2021/07/29 13:13:17;;;;;;;5.47;1.75;;;;;;;;;;5013624;28;20479;-53
2021/07/29 13:15:43;;;;;;;4.85;1.95;;;;;;;;;;5013777;28;20398;-56
2021/07/29 13:18:09;;;;;;;5.90;1.80;;;;;;;;;;5013516;28;20025;-55
2021/07/29 13:20:35;;;;;;;5.53;1.77;;;24.10;93.10;;;;;;5013367;28;20042;-54
2021/07/29 13:23:01;;;;;;;10.13;2.25;;;;;;;;;;5013452;28;20026;-56
2021/07/29 13:25:27;;;;;;;7.00;1.80;;;;;;;;;;5013389;28;20030;-55
2021/07/29 13:27:53;;;;;;;11.88;1.80;;;24.10;93.20;;;;;;5013417;28;20500;-57
2021/07/29 13:30:19;;;;;;;10.05;1.90;;;;;;;;;;5013302;28;20025;-55
2021/07/29 13:32:45;;;;;;;6.47;1.65;;;;;;;;;;5013253;28;20105;-55
2021/07/29 13:35:11;;;;;;;6.57;1.73;;;;;;;;;;5013487;28;20108;-55
2021/07/29 13:37:39;;;;;;;8.32;1.95;;;;;;;;;;5013186;28;20074;-58
2021/07/29 13:40:05;;;;;;;12.77;2.05;;;24.40;93.60;;;;;;5013000;28;20220;-55
2021/07/29 13:42:31;;;;;;;4.75;1.55;;;24.10;65.90;;;;;;5013181;28;20029;-55
2021/07/29 13:45:16;;;;;;;6.50;1.70;;;;;;;;;;5013059;28;20034;-53
2021/07/29 13:47:42;;;;;;;7.80;2.33;;;;;;;;;;5013084;28;20017;-55
2021/07/29 13:50:08;;;;;;;9.65;1.90;;;24.20;92.40;;;;;;5012976;28;20076;-56
2021/07/29 13:52:34;;;;;;;4.18;1.90;;;;;;;;;;5012978;28;20025;-55
2021/07/29 13:55:00;;;;;;;13.85;2.15;;;;;;;;;;5012919;28;20493;-54
2021/07/29 13:57:26;;;;;;;9.57;1.80;;;;;;;;;;5012865;28;20092;-55